createdAt,value
2017-12-12T00:01:51.359Z,81.40
2017-12-12T00:04:18.936Z,81.70
2017-12-12T00:06:46.510Z,81.50
2017-12-12T00:09:14.133Z,81.80
2017-12-12T00:11:41.744Z,81.90
2017-12-12T00:14:09.661Z,81.90
2017-12-12T00:16:37.242Z,81.50
2017-12-12T00:19:04.893Z,81.60
2017-12-12T00:21:32.540Z,81.70
2017-12-12T00:24:00.518Z,81.70
2017-12-12T00:26:28.124Z,81.40
2017-12-12T00:28:55.756Z,81.70
2017-12-12T00:31:23.354Z,81.30
2017-12-12T00:33:50.946Z,81.30
2017-12-12T00:36:18.585Z,81.40
2017-12-12T00:38:46.184Z,81.60
2017-12-12T00:41:13.769Z,81.80
2017-12-12T00:43:41.938Z,81.70
2017-12-12T00:46:09.615Z,81.80
2017-12-12T00:48:37.257Z,81.80
2017-12-12T00:51:04.882Z,81.70
2017-12-12T00:53:32.749Z,81.70
2017-12-12T00:56:00.365Z,82.00
2017-12-12T00:58:27.972Z,82.00
2017-12-12T01:00:55.590Z,81.90
2017-12-12T01:03:23.170Z,82.60
2017-12-12T01:05:50.807Z,81.50
2017-12-12T01:08:18.732Z,81.50
2017-12-12T01:10:46.751Z,81.50
2017-12-12T01:13:14.344Z,81.40
2017-12-12T01:15:41.920Z,81.60
2017-12-12T01:18:09.547Z,81.80
2017-12-12T01:20:37.121Z,81.90
2017-12-12T01:23:04.725Z,81.90
2017-12-12T01:25:32.281Z,81.90
2017-12-12T01:27:59.909Z,81.90
2017-12-12T01:30:27.651Z,81.90
2017-12-12T01:32:55.541Z,81.90
2017-12-12T01:35:23.110Z,81.90
2017-12-12T01:37:51.249Z,81.90
2017-12-12T01:40:18.887Z,81.90
2017-12-12T01:42:46.434Z,81.80
2017-12-12T01:45:14.921Z,81.80
2017-12-12T01:47:43.296Z,81.90
2017-12-12T01:50:11.240Z,81.80
2017-12-12T01:52:38.842Z,81.70
2017-12-12T01:55:06.434Z,81.80
2017-12-12T01:57:34.069Z,81.80
2017-12-12T02:00:01.643Z,81.80
2017-12-12T02:02:29.448Z,81.80
2017-12-12T02:04:56.998Z,81.80
2017-12-12T02:07:24.856Z,81.80
2017-12-12T02:09:52.409Z,81.70
2017-12-12T02:12:19.964Z,81.30
2017-12-12T02:14:47.572Z,81.40
2017-12-12T02:17:15.137Z,81.20
2017-12-12T02:19:43.514Z,81.00
2017-12-12T02:22:11.077Z,80.90
2017-12-12T02:24:39.437Z,81.10
2017-12-12T02:27:07.013Z,81.00
2017-12-12T02:29:35.908Z,81.10
2017-12-12T02:32:04.251Z,81.70
2017-12-12T02:34:32.567Z,81.10
2017-12-12T02:37:00.182Z,81.10
2017-12-12T02:39:27.774Z,80.90
2017-12-12T02:41:56.182Z,80.90
2017-12-12T02:44:23.788Z,80.80
2017-12-12T02:46:51.411Z,81.10
2017-12-12T02:49:18.996Z,81.10
2017-12-12T02:51:47.931Z,80.90
2017-12-12T02:54:16.388Z,80.80
2017-12-12T02:56:43.970Z,80.70
2017-12-12T02:59:11.568Z,80.80
2017-12-12T03:01:39.109Z,80.60
2017-12-12T03:04:07.630Z,80.50
2017-12-12T03:06:35.205Z,80.40
2017-12-12T03:09:03.164Z,80.40
2017-12-12T03:11:30.791Z,81.10
2017-12-12T03:13:58.383Z,80.50
2017-12-12T03:16:25.988Z,80.40
2017-12-12T03:18:54.301Z,80.30
2017-12-12T03:21:21.909Z,80.30
2017-12-12T03:23:49.506Z,80.30
2017-12-12T03:26:17.169Z,80.50
2017-12-12T03:28:44.721Z,80.30
2017-12-12T03:31:12.743Z,80.00
2017-12-12T03:33:40.472Z,80.20
2017-12-12T03:36:08.087Z,80.00
2017-12-12T03:38:35.641Z,79.90
2017-12-12T03:41:03.378Z,79.90
2017-12-12T03:43:30.992Z,79.90
2017-12-12T03:45:58.546Z,79.90
2017-12-12T03:48:26.920Z,79.90
2017-12-12T03:50:54.594Z,79.90
2017-12-12T03:53:22.489Z,79.90
2017-12-12T03:55:50.069Z,79.80
2017-12-12T03:58:17.733Z,79.80
2017-12-12T04:00:45.317Z,79.70
2017-12-12T04:03:16.631Z,80.10
2017-12-12T04:05:44.282Z,79.70
2017-12-12T04:08:11.926Z,79.80
2017-12-12T04:10:40.018Z,79.60
2017-12-12T04:13:08.357Z,79.70
2017-12-12T04:15:35.929Z,79.70
2017-12-12T04:18:03.526Z,79.60
2017-12-12T04:20:31.320Z,79.60
2017-12-12T04:22:59.834Z,79.70
2017-12-12T04:25:27.760Z,79.70
2017-12-12T04:27:55.341Z,79.70
2017-12-12T04:30:23.649Z,79.60
2017-12-12T04:32:52.245Z,79.50
2017-12-12T04:35:19.823Z,79.50
2017-12-12T04:37:47.426Z,79.50
2017-12-12T04:40:15.808Z,79.10
2017-12-12T04:42:43.373Z,79.10
2017-12-12T04:45:11.025Z,79.20
2017-12-12T04:47:38.657Z,79.30
2017-12-12T04:50:07.121Z,79.30
2017-12-12T04:52:35.169Z,79.10
2017-12-12T04:55:03.040Z,79.10
2017-12-12T04:57:30.619Z,79.00
2017-12-12T04:59:58.209Z,79.00
2017-12-12T05:02:26.601Z,79.40
2017-12-12T05:04:54.154Z,78.80
2017-12-12T05:07:22.594Z,78.90
2017-12-12T05:09:50.139Z,78.80
2017-12-12T05:12:18.138Z,78.80
2017-12-12T05:14:45.680Z,78.60
2017-12-12T05:17:13.243Z,78.50
2017-12-12T05:19:40.843Z,78.40
2017-12-12T05:22:08.402Z,78.00
2017-12-12T05:24:36.810Z,77.90
2017-12-12T05:27:04.368Z,77.80
2017-12-12T05:29:31.977Z,77.90
2017-12-12T05:31:59.561Z,77.90
2017-12-12T05:34:27.474Z,77.60
2017-12-12T05:36:55.094Z,77.80
2017-12-12T05:39:22.671Z,77.60
2017-12-12T05:41:50.300Z,77.30
2017-12-12T05:44:18.649Z,76.90
2017-12-12T05:46:46.244Z,76.90
2017-12-12T05:49:14.565Z,76.60
2017-12-12T05:51:42.545Z,76.50
2017-12-12T05:54:10.393Z,76.60
2017-12-12T05:56:37.961Z,76.40
2017-12-12T05:59:05.569Z,76.70
2017-12-12T06:01:33.196Z,76.30
2017-12-12T06:04:01.281Z,77.00
2017-12-12T06:06:28.845Z,76.10
2017-12-12T06:08:57.157Z,76.20
2017-12-12T06:11:24.785Z,76.30
2017-12-12T06:13:52.365Z,76.30
2017-12-12T06:16:20.733Z,76.70
2017-12-12T06:18:48.310Z,76.60
2017-12-12T06:21:16.948Z,76.00
2017-12-12T06:23:44.513Z,76.00
2017-12-12T06:26:12.122Z,76.00
2017-12-12T06:28:40.667Z,75.90
2017-12-12T06:31:08.274Z,75.80
2017-12-12T06:33:35.883Z,75.20
2017-12-12T06:36:03.469Z,75.40
2017-12-12T06:38:31.276Z,75.40
2017-12-12T06:40:58.840Z,74.90
2017-12-12T06:43:26.710Z,75.00
2017-12-12T06:45:55.081Z,75.00
2017-12-12T06:48:22.627Z,74.80
2017-12-12T06:50:50.328Z,74.00
2017-12-12T06:53:17.948Z,74.00
2017-12-12T06:55:45.697Z,73.90
2017-12-12T06:58:14.010Z,73.40
2017-12-12T07:00:41.777Z,73.50
2017-12-12T07:03:09.349Z,74.30
2017-12-12T07:05:37.345Z,73.90
2017-12-12T07:08:04.922Z,74.00
2017-12-12T07:10:33.445Z,74.90
2017-12-12T07:13:01.042Z,74.70
2017-12-12T07:15:28.842Z,74.50
2017-12-12T07:17:56.425Z,73.90
2017-12-12T07:20:23.983Z,74.30
2017-12-12T07:22:51.857Z,74.60
2017-12-12T07:25:20.335Z,73.80
2017-12-12T07:27:47.893Z,73.70
2017-12-12T07:30:15.493Z,73.80
2017-12-12T07:32:43.063Z,74.10
2017-12-12T07:35:12.766Z,73.50
2017-12-12T07:37:40.317Z,73.40
2017-12-12T07:40:08.265Z,73.50
2017-12-12T07:42:35.895Z,73.50
2017-12-12T07:45:03.508Z,74.10
2017-12-12T07:47:31.116Z,72.80
2017-12-12T07:49:58.695Z,73.30
2017-12-12T07:52:26.345Z,72.60
2017-12-12T07:54:54.252Z,73.10
2017-12-12T07:57:21.877Z,72.60
2017-12-12T07:59:49.975Z,72.60
2017-12-12T08:02:17.894Z,72.60
2017-12-12T08:04:45.467Z,73.10
2017-12-12T08:07:13.042Z,73.10
2017-12-12T08:09:40.657Z,73.40
2017-12-12T08:12:08.290Z,72.90
2017-12-12T08:14:35.907Z,72.90
2017-12-12T08:17:03.466Z,72.90
2017-12-12T08:19:31.469Z,72.90
2017-12-12T08:21:59.038Z,72.90
2017-12-12T08:24:27.267Z,72.90
2017-12-12T08:26:54.921Z,72.80
2017-12-12T08:29:22.489Z,72.80
2017-12-12T08:31:50.147Z,72.80
2017-12-12T08:34:17.922Z,72.80
2017-12-12T08:36:46.024Z,72.50
2017-12-12T08:39:13.574Z,72.80
2017-12-12T08:41:41.158Z,72.80
2017-12-12T08:44:09.585Z,72.90
2017-12-12T08:46:37.169Z,72.80
2017-12-12T08:49:04.799Z,72.90
2017-12-12T08:51:32.370Z,72.90
2017-12-12T08:54:00.012Z,72.90
2017-12-12T08:56:27.605Z,72.50
2017-12-12T08:58:55.585Z,72.50
2017-12-12T09:01:23.231Z,72.50
2017-12-12T09:03:50.790Z,71.90
2017-12-12T09:06:20.152Z,72.00
2017-12-12T09:08:47.721Z,72.70
2017-12-12T09:11:16.173Z,73.10
2017-12-12T09:13:43.746Z,73.20
2017-12-12T09:16:11.881Z,73.20
2017-12-12T09:18:39.469Z,72.60
2017-12-12T09:21:08.573Z,72.80
2017-12-12T09:23:36.196Z,73.30
2017-12-12T09:26:03.865Z,73.00
2017-12-12T09:28:31.688Z,72.50
2017-12-12T09:31:00.064Z,72.30
2017-12-12T09:33:27.990Z,72.70
2017-12-12T09:35:55.576Z,72.40
2017-12-12T09:38:23.578Z,72.40
2017-12-12T09:40:51.245Z,72.40
2017-12-12T09:43:18.812Z,70.90
2017-12-12T09:45:46.464Z,71.00
2017-12-12T09:48:14.233Z,72.00
2017-12-12T09:50:42.273Z,71.50
2017-12-12T09:53:09.856Z,71.70
2017-12-12T09:55:37.422Z,71.10
2017-12-12T09:58:05.026Z,71.40
2017-12-12T10:00:32.589Z,71.30
2017-12-12T10:03:00.375Z,71.90
2017-12-12T10:05:27.985Z,70.90
2017-12-12T10:07:55.677Z,71.10
2017-12-12T10:10:24.005Z,71.30
2017-12-12T10:12:51.774Z,71.30
2017-12-12T10:15:19.365Z,71.00
2017-12-12T10:17:46.922Z,70.20
2017-12-12T10:20:14.537Z,70.60
2017-12-12T10:22:42.158Z,70.50
2017-12-12T10:25:09.814Z,70.00
2017-12-12T10:27:37.377Z,70.40
2017-12-12T10:30:04.962Z,70.80
2017-12-12T10:32:32.557Z,70.70
2017-12-12T10:35:00.115Z,70.70
2017-12-12T10:37:27.724Z,70.10
2017-12-12T10:39:56.777Z,69.40
2017-12-12T10:42:24.365Z,69.40
2017-12-12T10:44:51.937Z,69.40
2017-12-12T10:47:19.605Z,69.60
2017-12-12T10:49:47.190Z,69.40
2017-12-12T10:52:14.769Z,69.40
2017-12-12T10:54:43.109Z,70.20
2017-12-12T10:57:11.441Z,70.00
2017-12-12T10:59:39.051Z,70.60
2017-12-12T11:02:07.547Z,69.40
2017-12-12T11:04:35.168Z,69.30
2017-12-12T11:07:02.765Z,70.10
2017-12-12T11:09:30.361Z,69.80
2017-12-12T11:11:58.006Z,70.00
2017-12-12T11:14:25.589Z,69.80
2017-12-12T11:16:54.134Z,69.30
2017-12-12T11:19:21.710Z,68.70
2017-12-12T11:21:49.333Z,69.10
2017-12-12T11:24:17.649Z,69.80
2017-12-12T11:26:45.253Z,69.80
2017-12-12T11:29:12.826Z,69.60
2017-12-12T11:31:40.396Z,70.40
2017-12-12T11:34:08.757Z,69.80
2017-12-12T11:36:36.516Z,69.70
2017-12-12T11:39:04.689Z,69.50
2017-12-12T11:41:33.215Z,69.70
2017-12-12T11:44:00.826Z,69.70
2017-12-12T11:46:29.169Z,69.50
2017-12-12T11:48:56.806Z,69.50
2017-12-12T11:51:24.365Z,68.90
2017-12-12T11:53:51.923Z,69.10
2017-12-12T11:56:20.266Z,68.50
2017-12-12T11:58:48.012Z,69.10
2017-12-12T12:01:15.746Z,69.40
2017-12-12T12:03:43.330Z,68.30
2017-12-12T12:06:10.970Z,69.70
2017-12-12T12:08:38.875Z,67.80
2017-12-12T12:11:06.460Z,68.80
2017-12-12T12:13:34.847Z,68.00
2017-12-12T12:16:02.461Z,68.00
2017-12-12T12:18:30.085Z,68.00
2017-12-12T12:20:59.342Z,68.80
2017-12-12T12:23:26.954Z,68.20
2017-12-12T12:25:54.518Z,68.70
2017-12-12T12:28:22.149Z,68.70
2017-12-12T12:30:49.710Z,68.80
2017-12-12T12:33:17.316Z,68.00
2017-12-12T12:35:44.937Z,67.90
2017-12-12T12:38:12.526Z,68.80
2017-12-12T12:40:40.456Z,67.90
2017-12-12T12:43:08.008Z,68.10
2017-12-12T12:45:36.241Z,68.70
2017-12-12T12:48:03.799Z,68.90
2017-12-12T12:50:31.477Z,67.80
2017-12-12T12:52:59.069Z,68.40
2017-12-12T12:55:26.666Z,67.60
2017-12-12T12:57:54.279Z,67.60
2017-12-12T13:00:22.609Z,68.00
2017-12-12T13:02:50.278Z,68.00
2017-12-12T13:05:17.853Z,67.60
2017-12-12T13:07:45.475Z,68.00
2017-12-12T13:10:13.059Z,67.60
2017-12-12T13:12:41.126Z,67.50
2017-12-12T13:15:08.744Z,67.60
2017-12-12T13:17:36.333Z,66.60
2017-12-12T13:20:04.001Z,68.50
2017-12-12T13:22:31.611Z,67.60
2017-12-12T13:24:59.234Z,68.00
2017-12-12T13:27:26.826Z,67.60
2017-12-12T13:29:55.432Z,67.60
2017-12-12T13:32:23.080Z,68.40
2017-12-12T13:34:50.672Z,67.70
2017-12-12T13:37:18.254Z,67.80
2017-12-12T13:39:45.829Z,67.60
2017-12-12T13:42:13.455Z,67.80
2017-12-12T13:44:41.030Z,67.20
2017-12-12T13:47:08.843Z,66.90
2017-12-12T13:49:36.421Z,67.80
2017-12-12T13:52:04.074Z,67.80
2017-12-12T13:54:32.428Z,67.80
2017-12-12T13:57:00.036Z,67.80
2017-12-12T13:59:27.854Z,68.50
2017-12-12T14:01:55.467Z,67.10
2017-12-12T14:04:23.228Z,67.70
2017-12-12T14:06:50.798Z,67.70
2017-12-12T14:09:18.428Z,67.50
2017-12-12T14:11:48.407Z,67.50
2017-12-12T14:14:16.031Z,67.60
2017-12-12T14:16:43.624Z,67.60
2017-12-12T14:19:11.185Z,67.60
2017-12-12T14:21:38.818Z,67.60
2017-12-12T14:24:06.374Z,66.90
2017-12-12T14:26:34.021Z,67.60
2017-12-12T14:29:01.597Z,67.60
2017-12-12T14:31:29.224Z,67.60
2017-12-12T14:33:56.801Z,67.60
2017-12-12T14:36:24.414Z,67.60
2017-12-12T14:38:52.043Z,67.60
2017-12-12T14:41:19.690Z,67.60
2017-12-12T14:43:47.354Z,67.50
2017-12-12T14:46:14.938Z,67.60
2017-12-12T14:48:42.592Z,67.70
2017-12-12T14:51:10.177Z,68.10
2017-12-12T14:53:37.835Z,68.00
2017-12-12T14:56:05.582Z,67.50
2017-12-12T14:58:33.566Z,67.80
2017-12-12T15:01:01.147Z,67.50
2017-12-12T15:03:28.789Z,67.50
2017-12-12T15:05:56.487Z,67.50
2017-12-12T15:08:24.089Z,67.50
2017-12-12T15:10:51.898Z,67.50
2017-12-12T15:13:20.234Z,67.50
2017-12-12T15:15:47.875Z,67.50
2017-12-12T15:18:16.265Z,67.50
2017-12-12T15:20:43.915Z,67.40
2017-12-12T15:23:12.434Z,67.50
2017-12-12T15:25:40.507Z,68.30
2017-12-12T15:28:08.118Z,67.60
2017-12-12T15:30:35.699Z,68.40
2017-12-12T15:33:03.627Z,68.70
2017-12-12T15:35:31.209Z,67.50
2017-12-12T15:37:58.812Z,68.50
2017-12-12T15:40:26.447Z,68.40
2017-12-12T15:42:54.021Z,68.60
2017-12-12T15:45:21.657Z,69.00
2017-12-12T15:47:57.359Z,68.50
2017-12-12T15:50:38.072Z,68.60
2017-12-12T15:53:05.641Z,68.40
2017-12-12T15:55:33.568Z,68.60
2017-12-12T15:58:01.913Z,69.20
2017-12-12T16:00:29.508Z,69.20
2017-12-12T16:02:58.994Z,69.10
2017-12-12T16:05:26.587Z,69.30
2017-12-12T16:07:54.217Z,69.10
2017-12-12T16:10:22.005Z,69.00
2017-12-12T16:12:50.371Z,69.10
2017-12-12T16:15:17.979Z,69.00
2017-12-12T16:17:45.575Z,69.00
2017-12-12T16:20:13.218Z,69.00
2017-12-12T16:22:40.783Z,69.10
2017-12-12T16:25:08.440Z,69.50
2017-12-12T16:27:36.043Z,69.20
2017-12-12T16:30:04.858Z,69.70
2017-12-12T16:32:32.436Z,69.50
2017-12-12T16:35:00.058Z,69.40
2017-12-12T16:37:28.479Z,69.70
2017-12-12T16:39:56.052Z,69.70
2017-12-12T16:42:31.051Z,69.70
2017-12-12T16:44:58.612Z,69.60
2017-12-12T16:47:33.605Z,69.80
2017-12-12T16:50:01.218Z,69.50
2017-12-12T16:52:28.986Z,69.30
2017-12-12T16:54:56.619Z,69.70
2017-12-12T16:57:24.203Z,69.70
2017-12-12T16:59:51.929Z,69.50
2017-12-12T17:02:19.576Z,69.70
2017-12-12T17:04:47.873Z,69.70
2017-12-12T17:07:15.469Z,69.70
2017-12-12T17:09:43.122Z,69.70
2017-12-12T17:12:10.768Z,69.40
2017-12-12T17:14:38.423Z,69.40
2017-12-12T17:17:06.064Z,69.50
2017-12-12T17:19:34.563Z,69.40
2017-12-12T17:22:02.946Z,69.30
2017-12-12T17:24:30.540Z,69.40
2017-12-12T17:26:58.245Z,69.70
2017-12-12T17:29:25.905Z,69.40
2017-12-12T17:31:53.567Z,69.80
2017-12-12T17:34:21.207Z,70.10
2017-12-12T17:36:48.781Z,69.70
2017-12-12T17:39:16.446Z,69.70
2017-12-12T17:41:44.134Z,69.80
2017-12-12T17:44:12.596Z,69.80
2017-12-12T17:46:42.401Z,69.90
2017-12-12T17:49:10.121Z,70.00
2017-12-12T17:51:38.187Z,69.90
2017-12-12T17:54:06.663Z,70.00
2017-12-12T17:56:34.477Z,69.80
2017-12-12T17:59:07.482Z,70.10
2017-12-12T18:01:35.181Z,69.80
2017-12-12T18:04:03.381Z,69.80
2017-12-12T18:06:31.013Z,70.00
2017-12-12T18:08:59.604Z,70.30
2017-12-12T18:11:27.213Z,70.20
2017-12-12T18:13:56.155Z,70.40
2017-12-12T18:16:24.716Z,70.20
2017-12-12T18:18:53.260Z,70.60
2017-12-12T18:21:20.879Z,70.90
2017-12-12T18:23:48.866Z,70.40
2017-12-12T18:26:16.473Z,70.30
2017-12-12T18:28:44.696Z,70.30
2017-12-12T18:31:12.390Z,71.50
2017-12-12T18:33:40.016Z,70.70
2017-12-12T18:36:07.663Z,70.20
2017-12-12T18:38:35.892Z,70.50
2017-12-12T18:41:04.391Z,70.40
2017-12-12T18:43:32.789Z,70.60
2017-12-12T18:46:00.351Z,70.70
2017-12-12T18:48:28.010Z,71.00
2017-12-12T18:50:55.626Z,71.10
2017-12-12T18:53:24.055Z,70.90
2017-12-12T18:55:53.598Z,70.90
2017-12-12T18:58:21.255Z,70.70
2017-12-12T19:00:48.872Z,70.50
2017-12-12T19:03:17.365Z,70.80
2017-12-12T19:05:45.043Z,70.50
2017-12-12T19:08:12.669Z,70.90
2017-12-12T19:10:40.825Z,71.00
2017-12-12T19:13:11.109Z,71.30
2017-12-12T19:15:38.917Z,70.70
2017-12-12T19:18:06.618Z,70.50
2017-12-12T19:20:34.237Z,70.30
2017-12-12T19:23:01.792Z,70.60
2017-12-12T19:25:30.019Z,70.50
2017-12-12T19:27:59.187Z,70.50
2017-12-12T19:30:26.865Z,70.40
2017-12-12T19:32:55.307Z,70.20
2017-12-12T19:35:23.897Z,70.40
2017-12-12T19:37:51.703Z,70.40
2017-12-12T19:40:19.464Z,70.40
2017-12-12T19:42:47.125Z,70.40
2017-12-12T19:45:15.505Z,70.40
2017-12-12T19:47:47.240Z,70.90
2017-12-12T19:50:14.907Z,70.50
2017-12-12T19:52:46.004Z,70.50
2017-12-12T19:57:54.355Z,70.50
2017-12-12T20:06:00.759Z,70.90
2017-12-12T20:08:28.374Z,70.30
2017-12-12T20:10:55.983Z,70.90
2017-12-12T20:13:24.386Z,70.80
2017-12-12T20:15:51.969Z,70.80
2017-12-12T20:18:19.629Z,70.80
2017-12-12T20:20:47.201Z,70.90
2017-12-12T20:23:14.821Z,70.60
2017-12-12T20:25:42.441Z,70.80
2017-12-12T20:28:10.044Z,70.80
2017-12-12T20:30:37.633Z,70.90
2017-12-12T20:33:05.169Z,71.00
2017-12-12T20:35:33.866Z,71.10
2017-12-12T20:38:01.706Z,70.90
2017-12-12T20:40:30.145Z,71.20
2017-12-12T20:42:58.497Z,71.20
2017-12-12T20:45:26.252Z,71.20
2017-12-12T20:47:54.705Z,71.10
2017-12-12T20:50:29.464Z,71.00
2017-12-12T20:52:57.136Z,70.90
2017-12-12T20:55:24.816Z,71.00
2017-12-12T20:57:53.189Z,71.40
2017-12-12T21:00:20.929Z,71.40
2017-12-12T21:02:48.547Z,71.10
2017-12-12T21:05:16.225Z,71.10
2017-12-12T21:07:45.330Z,71.00
2017-12-12T21:10:12.945Z,71.00
2017-12-12T21:12:41.186Z,71.30
2017-12-12T21:15:09.909Z,71.30
2017-12-12T21:17:37.501Z,71.30
2017-12-12T21:20:05.861Z,71.30
2017-12-12T21:22:33.504Z,71.30
2017-12-12T21:25:01.086Z,71.30
2017-12-12T21:27:28.789Z,71.30
2017-12-12T21:29:56.418Z,71.80
2017-12-12T21:32:24.928Z,71.40
2017-12-12T21:34:53.363Z,71.40
2017-12-12T21:37:23.930Z,71.20
2017-12-12T21:39:51.545Z,71.40
2017-12-12T21:42:19.149Z,71.40
2017-12-12T21:44:46.752Z,71.40
2017-12-12T21:47:14.426Z,71.50
2017-12-12T21:49:42.018Z,71.40
2017-12-12T21:52:11.999Z,71.50
2017-12-12T21:54:39.607Z,71.40
2017-12-12T21:57:08.280Z,71.50
2017-12-12T21:59:36.063Z,71.40
2017-12-12T22:02:03.694Z,71.10
2017-12-12T22:04:32.266Z,71.40
2017-12-12T22:06:59.828Z,71.40
2017-12-12T22:09:28.412Z,71.40
2017-12-12T22:11:57.248Z,71.60
2017-12-12T22:14:25.157Z,71.40
2017-12-12T22:16:56.610Z,71.60
2017-12-12T22:19:24.320Z,71.40
2017-12-12T22:21:52.032Z,71.50
2017-12-12T22:24:20.462Z,71.50
2017-12-12T22:26:48.169Z,71.50
2017-12-12T22:29:15.754Z,71.50
2017-12-12T22:31:44.161Z,71.50
2017-12-12T22:34:11.858Z,71.50
2017-12-12T22:36:39.622Z,71.50
2017-12-12T22:39:07.320Z,71.50
2017-12-12T22:41:34.938Z,71.50
2017-12-12T22:44:02.619Z,71.50
2017-12-12T22:46:30.195Z,71.40
2017-12-12T22:48:57.893Z,71.40
2017-12-12T22:51:25.483Z,71.40
2017-12-12T22:53:53.164Z,71.40
2017-12-12T22:56:20.743Z,71.40
2017-12-12T22:58:52.271Z,71.40
2017-12-12T23:01:19.870Z,72.00
2017-12-12T23:03:47.450Z,71.40
2017-12-12T23:06:15.129Z,71.40
2017-12-12T23:08:42.702Z,71.40
2017-12-12T23:11:11.132Z,71.40
2017-12-12T23:13:38.735Z,71.40
2017-12-12T23:16:06.367Z,71.40
2017-12-12T23:18:33.956Z,71.40
2017-12-12T23:21:02.086Z,71.40
2017-12-12T23:23:29.701Z,71.40
2017-12-12T23:25:57.277Z,71.40
2017-12-12T23:28:24.900Z,71.40
2017-12-12T23:30:53.310Z,71.40
2017-12-12T23:33:21.913Z,71.40
2017-12-12T23:35:49.511Z,71.40
2017-12-12T23:38:17.786Z,71.40
2017-12-12T23:40:45.386Z,71.40
2017-12-12T23:43:12.993Z,71.40
2017-12-12T23:45:41.380Z,71.40
2017-12-12T23:48:09.043Z,71.40
2017-12-12T23:50:36.674Z,71.40
2017-12-12T23:53:04.218Z,71.40
2017-12-12T23:55:31.866Z,71.40
2017-12-12T23:57:59.442Z,71.40
